sensor_id;sensor_type;location;lat;lon;timestamp;pressure;altitude;pressure_sealevel;temperature;humidity
48244;BME280;34053;51.088;6.572;2022-09-20T00:02:17;101652.53;;;13.03;72.41
48244;BME280;34053;51.088;6.572;2022-09-20T00:04:48;101649.91;;;13.03;73.32
48244;BME280;34053;51.088;6.572;2022-09-20T00:07:18;101649.09;;;13.01;72.45
48244;BME280;34053;51.088;6.572;2022-09-20T00:09:49;101637.44;;;13.11;72.02
48244;BME280;34053;51.088;6.572;2022-09-20T00:12:19;101642.63;;;13.14;72.13
48244;BME280;34053;51.088;6.572;2022-09-20T00:14:50;101632.03;;;13.17;72.35
48244;BME280;34053;51.088;6.572;2022-09-20T00:17:21;101633.06;;;13.10;71.79
48244;BME280;34053;51.088;6.572;2022-09-20T00:19:51;101637.75;;;12.97;74.16
48244;BME280;34053;51.088;6.572;2022-09-20T00:22:22;101632.59;;;12.91;74.13
48244;BME280;34053;51.088;6.572;2022-09-20T00:24:52;101644.53;;;13.09;72.74
48244;BME280;34053;51.088;6.572;2022-09-20T00:27:23;101653.31;;;13.08;72.63
48244;BME280;34053;51.088;6.572;2022-09-20T00:29:54;101650.59;;;13.11;72.67
48244;BME280;34053;51.088;6.572;2022-09-20T00:32:24;101649.25;;;12.93;73.20
48244;BME280;34053;51.088;6.572;2022-09-20T00:34:55;101647.41;;;12.97;74.00
48244;BME280;34053;51.088;6.572;2022-09-20T00:37:39;101651.78;;;12.98;73.47
48244;BME280;34053;51.088;6.572;2022-09-20T00:40:17;101654.31;;;13.02;72.08
48244;BME280;34053;51.088;6.572;2022-09-20T00:42:52;101639.47;;;13.00;72.35
48244;BME280;34053;51.088;6.572;2022-09-20T00:45:27;101644.63;;;13.03;72.58
48244;BME280;34053;51.088;6.572;2022-09-20T00:48:03;101650.66;;;13.10;72.51
48244;BME280;34053;51.088;6.572;2022-09-20T00:50:48;101641.00;;;13.09;72.22
48244;BME280;34053;51.088;6.572;2022-09-20T00:53:25;101640.97;;;13.10;72.23
48244;BME280;34053;51.088;6.572;2022-09-20T00:56:03;101643.59;;;13.10;71.91
48244;BME280;34053;51.088;6.572;2022-09-20T00:58:38;101650.69;;;13.08;72.04
48244;BME280;34053;51.088;6.572;2022-09-20T01:01:10;101641.03;;;13.07;71.76
48244;BME280;34053;51.088;6.572;2022-09-20T01:03:41;101643.59;;;13.10;72.29
48244;BME280;34053;51.088;6.572;2022-09-20T01:06:14;101640.97;;;13.10;71.72
48244;BME280;34053;51.088;6.572;2022-09-20T01:08:48;101642.84;;;13.05;72.00
48244;BME280;34053;51.088;6.572;2022-09-20T01:11:19;101648.16;;;13.02;72.61
48244;BME280;34053;51.088;6.572;2022-09-20T01:13:50;101652.44;;;13.09;71.72
48244;BME280;34053;51.088;6.572;2022-09-20T01:16:21;101643.69;;;13.07;71.70
48244;BME280;34053;51.088;6.572;2022-09-20T01:18:56;101649.84;;;13.06;71.56
48244;BME280;34053;51.088;6.572;2022-09-20T01:21:27;101656.81;;;13.09;71.62
48244;BME280;34053;51.088;6.572;2022-09-20T01:24:09;101649.09;;;13.01;71.87
48244;BME280;34053;51.088;6.572;2022-09-20T01:32:10;101634.78;;;13.13;71.94
48244;BME280;34053;51.088;6.572;2022-09-20T01:34:53;101639.31;;;13.06;72.01
48244;BME280;34053;51.088;6.572;2022-09-20T01:40:16;101634.88;;;13.08;72.18
48244;BME280;34053;51.088;6.572;2022-09-20T01:43:07;101636.81;;;13.00;72.20
48244;BME280;34053;51.088;6.572;2022-09-20T01:45:48;101642.16;;;12.97;71.93
48244;BME280;34053;51.088;6.572;2022-09-20T01:48:39;101649.09;;;12.99;72.33
48244;BME280;34053;51.088;6.572;2022-09-20T01:57:33;101653.78;;;12.88;72.60
48244;BME280;34053;51.088;6.572;2022-09-20T02:00:11;101647.50;;;12.92;71.92
48244;BME280;34053;51.088;6.572;2022-09-20T02:08:21;101654.56;;;12.90;71.92
48244;BME280;34053;51.088;6.572;2022-09-20T02:26:14;101650.09;;;12.94;71.80
48244;BME280;34053;51.088;6.572;2022-09-20T02:45:31;101635.00;;;13.02;71.82
48244;BME280;34053;51.088;6.572;2022-09-20T02:48:07;101637.91;;;12.89;71.55
48244;BME280;34053;51.088;6.572;2022-09-20T02:50:54;101645.06;;;12.84;71.91
48244;BME280;34053;51.088;6.572;2022-09-20T02:53:34;101637.91;;;12.89;71.26
48244;BME280;34053;51.088;6.572;2022-09-20T02:56:24;101637.97;;;12.88;71.57
48244;BME280;34053;51.088;6.572;2022-09-20T02:59:30;101638.06;;;12.83;71.64
48244;BME280;34053;51.088;6.572;2022-09-20T03:06:17;101644.19;;;12.84;71.48
48244;BME280;34053;51.088;6.572;2022-09-20T03:09:53;101642.44;;;12.84;71.62
48244;BME280;34053;51.088;6.572;2022-09-20T03:18:22;101628.47;;;12.81;71.90
48244;BME280;34053;51.088;6.572;2022-09-20T03:21:21;101623.13;;;12.84;71.89
48244;BME280;34053;51.088;6.572;2022-09-20T03:27:10;101627.59;;;12.80;71.72
48244;BME280;34053;51.088;6.572;2022-09-20T03:36:07;101631.13;;;12.79;72.19
48244;BME280;34053;51.088;6.572;2022-09-20T04:04:51;101641.84;;;12.70;73.62
48244;BME280;34053;51.088;6.572;2022-09-20T04:10:40;101647.19;;;12.67;72.50
48244;BME280;34053;51.088;6.572;2022-09-20T04:15:59;101653.28;;;12.69;72.84
48244;BME280;34053;51.088;6.572;2022-09-20T04:19:47;101647.06;;;12.73;72.51
48244;BME280;34053;51.088;6.572;2022-09-20T04:22:03;101647.81;;;12.80;72.73
48244;BME280;34053;51.088;6.572;2022-09-20T04:27:45;101649.69;;;12.73;72.88
48244;BME280;34053;51.088;6.572;2022-09-20T04:30:24;101648.13;;;12.63;73.85
48244;BME280;34053;51.088;6.572;2022-09-20T04:36:16;101643.66;;;12.68;73.04
48244;BME280;34053;51.088;6.572;2022-09-20T04:56:19;101656.75;;;12.71;72.39
48244;BME280;34053;51.088;6.572;2022-09-20T05:02:11;101661.06;;;12.75;73.18
48244;BME280;34053;51.088;6.572;2022-09-20T05:24:52;101680.53;;;12.68;72.73
48244;BME280;34053;51.088;6.572;2022-09-20T05:30:30;101689.31;;;12.67;72.51
48244;BME280;34053;51.088;6.572;2022-09-20T05:35:51;101687.53;;;12.67;73.14
48244;BME280;34053;51.088;6.572;2022-09-20T05:41:33;101694.72;;;12.59;73.18
48244;BME280;34053;51.088;6.572;2022-09-20T05:47:39;101694.63;;;12.64;73.05
48244;BME280;34053;51.088;6.572;2022-09-20T05:50:28;101694.63;;;12.64;72.79
48244;BME280;34053;51.088;6.572;2022-09-20T05:58:54;101702.53;;;12.64;73.19
48244;BME280;34053;51.088;6.572;2022-09-20T06:01:43;101703.34;;;12.67;72.60
48244;BME280;34053;51.088;6.572;2022-09-20T06:04:23;101701.59;;;12.68;72.89
48244;BME280;34053;51.088;6.572;2022-09-20T06:12:53;101700.56;;;12.75;73.24
48244;BME280;34053;51.088;6.572;2022-09-20T06:15:46;101708.38;;;12.78;73.22
48244;BME280;34053;51.088;6.572;2022-09-20T06:18:41;101710.28;;;12.71;74.64
48244;BME280;34053;51.088;6.572;2022-09-20T06:23:44;101718.19;;;12.70;75.17
48244;BME280;34053;51.088;6.572;2022-09-20T06:26:23;101712.94;;;12.70;74.63
48244;BME280;34053;51.088;6.572;2022-09-20T06:28:59;101713.78;;;12.72;75.09
48244;BME280;34053;51.088;6.572;2022-09-20T06:31:41;101715.69;;;12.64;74.67
48244;BME280;34053;51.088;6.572;2022-09-20T06:34:14;101716.38;;;12.73;75.20
48244;BME280;34053;51.088;6.572;2022-09-20T06:36:46;101714.53;;;12.77;75.09
48244;BME280;34053;51.088;6.572;2022-09-20T06:39:59;101712.03;;;12.71;74.27
48244;BME280;34053;51.088;6.572;2022-09-20T06:42:50;101710.25;;;12.73;75.68
48244;BME280;34053;51.088;6.572;2022-09-20T06:45:22;101708.50;;;12.72;75.95
48244;BME280;34053;51.088;6.572;2022-09-20T06:47:53;101711.91;;;12.77;74.59
48244;BME280;34053;51.088;6.572;2022-09-20T06:50:23;101714.66;;;12.72;76.12
48244;BME280;34053;51.088;6.572;2022-09-20T06:52:56;101721.53;;;12.78;75.93
48244;BME280;34053;51.088;6.572;2022-09-20T06:55:29;101717.31;;;12.71;76.28
48244;BME280;34053;51.088;6.572;2022-09-20T06:58:15;101724.31;;;12.72;77.21
48244;BME280;34053;51.088;6.572;2022-09-20T07:00:49;101718.91;;;12.78;75.77
48244;BME280;34053;51.088;6.572;2022-09-20T07:03:19;101717.97;;;12.82;75.32
48244;BME280;34053;51.088;6.572;2022-09-20T07:05:50;101717.75;;;12.93;75.40
48244;BME280;34053;51.088;6.572;2022-09-20T07:08:50;101719.56;;;12.89;76.78
48244;BME280;34053;51.088;6.572;2022-09-20T07:11:24;101720.47;;;12.88;76.02
48244;BME280;34053;51.088;6.572;2022-09-20T07:13:55;101720.47;;;12.88;76.80
48244;BME280;34053;51.088;6.572;2022-09-20T07:16:27;101722.81;;;13.02;76.12
48244;BME280;34053;51.088;6.572;2022-09-20T07:18:58;101727.09;;;13.06;75.86
48244;BME280;34053;51.088;6.572;2022-09-20T07:21:29;101727.16;;;13.05;75.19
48244;BME280;34053;51.088;6.572;2022-09-20T07:24:03;101740.28;;;13.08;75.36
48244;BME280;34053;51.088;6.572;2022-09-20T07:26:36;101739.47;;;13.03;75.51
48244;BME280;34053;51.088;6.572;2022-09-20T07:29:08;101737.59;;;13.10;75.22
48244;BME280;34053;51.088;6.572;2022-09-20T07:31:39;101735.78;;;13.12;75.05
48244;BME280;34053;51.088;6.572;2022-09-20T07:34:09;101740.09;;;13.16;74.96
48244;BME280;34053;51.088;6.572;2022-09-20T07:36:40;101739.22;;;13.15;74.86
48244;BME280;34053;51.088;6.572;2022-09-20T07:39:16;101738.25;;;13.21;74.67
48244;BME280;34053;51.088;6.572;2022-09-20T07:41:47;101733.91;;;13.17;74.71
48244;BME280;34053;51.088;6.572;2022-09-20T07:44:30;101733.75;;;13.25;75.04
48244;BME280;34053;51.088;6.572;2022-09-20T07:47:05;101732.28;;;13.11;74.77
48244;BME280;34053;51.088;6.572;2022-09-20T07:49:48;101742.09;;;13.04;74.98
48244;BME280;34053;51.088;6.572;2022-09-20T07:52:18;101738.66;;;13.01;75.45
48244;BME280;34053;51.088;6.572;2022-09-20T07:54:49;101737.81;;;12.99;74.53
48244;BME280;34053;51.088;6.572;2022-09-20T07:57:20;101741.31;;;13.01;74.46
48244;BME280;34053;51.088;6.572;2022-09-20T07:59:53;101747.19;;;13.12;73.22
48244;BME280;34053;51.088;6.572;2022-09-20T08:02:23;101742.81;;;13.11;73.01
48244;BME280;34053;51.088;6.572;2022-09-20T08:04:54;101747.28;;;13.09;73.43
48244;BME280;34053;51.088;6.572;2022-09-20T08:07:40;101755.13;;;13.11;73.44
48244;BME280;34053;51.088;6.572;2022-09-20T08:10:14;101748.94;;;13.13;72.54
48244;BME280;34053;51.088;6.572;2022-09-20T08:12:44;101749.22;;;13.01;72.71
48244;BME280;34053;51.088;6.572;2022-09-20T08:15:16;101751.44;;;13.19;72.28
48244;BME280;34053;51.088;6.572;2022-09-20T08:17:47;101761.41;;;13.05;72.55
48244;BME280;34053;51.088;6.572;2022-09-20T08:20:18;101758.28;;;13.27;72.26
48244;BME280;34053;51.088;6.572;2022-09-20T08:22:53;101753.09;;;13.23;72.43
48244;BME280;34053;51.088;6.572;2022-09-20T08:25:28;101759.13;;;13.29;72.47
48244;BME280;34053;51.088;6.572;2022-09-20T08:28:10;101757.44;;;13.26;71.83
48244;BME280;34053;51.088;6.572;2022-09-20T08:30:40;101758.19;;;13.33;71.44
48244;BME280;34053;51.088;6.572;2022-09-20T08:33:15;101759.19;;;13.27;71.28
48244;BME280;34053;51.088;6.572;2022-09-20T08:35:48;101766.91;;;13.35;71.21
48244;BME280;34053;51.088;6.572;2022-09-20T08:38:31;101767.97;;;13.26;70.17
48244;BME280;34053;51.088;6.572;2022-09-20T08:41:33;101764.50;;;13.26;70.79
48244;BME280;34053;51.088;6.572;2022-09-20T08:44:17;101763.56;;;13.28;71.31
48244;BME280;34053;51.088;6.572;2022-09-20T08:49:50;101775.94;;;13.25;71.00
48244;BME280;34053;51.088;6.572;2022-09-20T08:52:31;101771.25;;;13.39;70.71
48244;BME280;34053;51.088;6.572;2022-09-20T08:57:51;101769.25;;;13.49;68.67
48244;BME280;34053;51.088;6.572;2022-09-20T09:00:30;101773.78;;;13.44;69.00
48244;BME280;34053;51.088;6.572;2022-09-20T09:03:15;101771.09;;;13.45;69.68
48244;BME280;34053;51.088;6.572;2022-09-20T09:05:52;101771.81;;;13.53;68.46
48244;BME280;34053;51.088;6.572;2022-09-20T09:08:28;101764.72;;;13.56;69.00
48244;BME280;34053;51.088;6.572;2022-09-20T09:11:28;101779.47;;;13.64;67.98
48244;BME280;34053;51.088;6.572;2022-09-20T09:14:06;101771.50;;;13.67;68.67
48244;BME280;34053;51.088;6.572;2022-09-20T09:17:02;101768.63;;;13.77;67.30
48244;BME280;34053;51.088;6.572;2022-09-20T09:19:47;101776.59;;;13.75;67.41
48244;BME280;34053;51.088;6.572;2022-09-20T09:22:24;101776.50;;;13.78;67.40
48244;BME280;34053;51.088;6.572;2022-09-20T09:30:45;101770.16;;;13.87;63.78
48244;BME280;34053;51.088;6.572;2022-09-20T09:33:27;101773.47;;;13.95;64.70
48244;BME280;34053;51.088;6.572;2022-09-20T09:36:23;101769.16;;;13.91;65.22
48244;BME280;34053;51.088;6.572;2022-09-20T09:39:21;101774.59;;;13.85;65.24
48244;BME280;34053;51.088;6.572;2022-09-20T09:42:19;101773.44;;;13.97;65.29
48244;BME280;34053;51.088;6.572;2022-09-20T09:45:11;101770.91;;;13.92;64.01
48244;BME280;34053;51.088;6.572;2022-09-20T09:47:45;101769.00;;;13.99;64.35
48244;BME280;34053;51.088;6.572;2022-09-20T09:50:27;101767.31;;;13.95;65.26
48244;BME280;34053;51.088;6.572;2022-09-20T09:53:30;101765.34;;;14.03;65.57
48244;BME280;34053;51.088;6.572;2022-09-20T10:05:13;101765.56;;;14.30;62.56
48244;BME280;34053;51.088;6.572;2022-09-20T10:25:40;101765.38;;;14.38;61.94
48244;BME280;34053;51.088;6.572;2022-09-20T10:46:34;101790.84;;;14.40;64.79
48244;BME280;34053;51.088;6.572;2022-09-20T10:49:42;101786.41;;;14.41;65.63
48244;BME280;34053;51.088;6.572;2022-09-20T11:04:13;101791.56;;;14.45;66.02
48244;BME280;34053;51.088;6.572;2022-09-20T11:07:10;101796.72;;;14.50;65.44
48244;BME280;34053;51.088;6.572;2022-09-20T11:09:56;101794.03;;;14.52;65.75
48244;BME280;34053;51.088;6.572;2022-09-20T11:12:39;101797.69;;;14.47;65.33
48244;BME280;34053;51.088;6.572;2022-09-20T11:15:23;101797.69;;;14.47;65.19
48244;BME280;34053;51.088;6.572;2022-09-20T11:21:27;101802.34;;;14.38;63.85
48244;BME280;34053;51.088;6.572;2022-09-20T11:32:54;101805.63;;;14.11;61.79
48244;BME280;34053;51.088;6.572;2022-09-20T11:35:33;101806.06;;;14.29;63.46
48244;BME280;34053;51.088;6.572;2022-09-20T11:43:29;101806.81;;;14.34;64.17
48244;BME280;34053;51.088;6.572;2022-09-20T11:46:06;101806.81;;;14.34;63.74
48244;BME280;34053;51.088;6.572;2022-09-20T11:54:18;101813.53;;;14.47;61.86
48244;BME280;34053;51.088;6.572;2022-09-20T11:56:53;101803.69;;;14.53;62.94
48244;BME280;34053;51.088;6.572;2022-09-20T12:00:14;101809.81;;;14.55;60.97
48244;BME280;34053;51.088;6.572;2022-09-20T12:02:51;101806.31;;;14.54;61.94
48244;BME280;34053;51.088;6.572;2022-09-20T12:07:55;101806.84;;;14.69;60.09
48244;BME280;34053;51.088;6.572;2022-09-20T12:10:30;101813.94;;;14.67;61.23
48244;BME280;34053;51.088;6.572;2022-09-20T12:13:24;101815.66;;;14.68;60.67
48244;BME280;34053;51.088;6.572;2022-09-20T12:16:04;101819.94;;;14.73;60.70
48244;BME280;34053;51.088;6.572;2022-09-20T12:21:23;101828.81;;;14.69;60.90
48244;BME280;34053;51.088;6.572;2022-09-20T12:26:42;101812.41;;;14.56;61.85
48244;BME280;34053;51.088;6.572;2022-09-20T12:32:31;101825.44;;;14.64;62.98
48244;BME280;34053;51.088;6.572;2022-09-20T12:41:10;101817.44;;;14.66;64.29
48244;BME280;34053;51.088;6.572;2022-09-20T12:46:31;101809.66;;;14.61;64.30
48244;BME280;34053;51.088;6.572;2022-09-20T12:52:29;101799.66;;;14.74;64.16
48244;BME280;34053;51.088;6.572;2022-09-20T13:01:35;101815.19;;;14.85;63.19
48244;BME280;34053;51.088;6.572;2022-09-20T13:03:42;101807.19;;;14.88;63.94
48244;BME280;34053;51.088;6.572;2022-09-20T13:14:32;101798.25;;;14.92;61.64
48244;BME280;34053;51.088;6.572;2022-09-20T13:19:50;101791.09;;;14.97;62.37
48244;BME280;34053;51.088;6.572;2022-09-20T13:22:29;101797.09;;;15.02;62.14
48244;BME280;34053;51.088;6.572;2022-09-20T13:25:31;101791.63;;;15.08;61.00
48244;BME280;34053;51.088;6.572;2022-09-20T13:28:24;101791.59;;;15.10;62.04
48244;BME280;34053;51.088;6.572;2022-09-20T13:34:23;101794.78;;;15.21;61.08
48244;BME280;34053;51.088;6.572;2022-09-20T13:36:59;101791.72;;;15.35;61.21
48244;BME280;34053;51.088;6.572;2022-09-20T13:39:56;101787.81;;;15.49;58.15
48244;BME280;34053;51.088;6.572;2022-09-20T13:42:38;101786.84;;;15.51;57.27
48244;BME280;34053;51.088;6.572;2022-09-20T13:45:12;101796.19;;;15.63;57.27
48244;BME280;34053;51.088;6.572;2022-09-20T13:47:52;101785.88;;;15.54;58.87
48244;BME280;34053;51.088;6.572;2022-09-20T13:50:29;101789.03;;;15.67;59.64
48244;BME280;34053;51.088;6.572;2022-09-20T13:53:32;101783.25;;;15.82;58.10
48244;BME280;34053;51.088;6.572;2022-09-20T13:56:21;101782.06;;;15.93;58.06
48244;BME280;34053;51.088;6.572;2022-09-20T13:58:53;101783.75;;;15.95;57.22
48244;BME280;34053;51.088;6.572;2022-09-20T14:01:30;101776.16;;;16.11;57.37
48244;BME280;34053;51.088;6.572;2022-09-20T14:04:28;101778.84;;;16.10;56.50
48244;BME280;34053;51.088;6.572;2022-09-20T14:07:07;101779.72;;;16.10;58.62
48244;BME280;34053;51.088;6.572;2022-09-20T14:09:39;101770.72;;;16.41;56.81
48244;BME280;34053;51.088;6.572;2022-09-20T14:12:11;101775.88;;;16.46;56.73
48244;BME280;34053;51.088;6.572;2022-09-20T14:14:43;101766.41;;;16.39;57.90
48244;BME280;34053;51.088;6.572;2022-09-20T14:17:16;101773.69;;;16.57;56.25
48244;BME280;34053;51.088;6.572;2022-09-20T14:19:50;101774.13;;;16.70;54.89
48244;BME280;34053;51.088;6.572;2022-09-20T14:22:25;101773.25;;;16.70;56.85
48244;BME280;34053;51.088;6.572;2022-09-20T14:25:25;101764.41;;;16.71;53.84
48244;BME280;34053;51.088;6.572;2022-09-20T14:28:16;101757.84;;;16.81;53.63
48244;BME280;34053;51.088;6.572;2022-09-20T14:30:47;101767.41;;;16.85;54.23
48244;BME280;34053;51.088;6.572;2022-09-20T14:33:19;101764.06;;;16.80;54.14
48244;BME280;34053;51.088;6.572;2022-09-20T14:35:50;101765.50;;;16.89;52.70
48244;BME280;34053;51.088;6.572;2022-09-20T14:38:27;101760.50;;;16.81;51.37
48244;BME280;34053;51.088;6.572;2022-09-20T14:41:00;101756.38;;;16.72;50.69
48244;BME280;34053;51.088;6.572;2022-09-20T14:43:35;101754.16;;;16.85;53.06
48244;BME280;34053;51.088;6.572;2022-09-20T14:46:15;101762.03;;;16.87;52.91
48244;BME280;34053;51.088;6.572;2022-09-20T14:48:46;101748.59;;;16.91;52.34
48244;BME280;34053;51.088;6.572;2022-09-20T14:54:14;101749.75;;;16.84;50.91
48244;BME280;34053;51.088;6.572;2022-09-20T14:56:48;101751.91;;;16.74;50.72
48244;BME280;34053;51.088;6.572;2022-09-20T14:59:23;101752.72;;;16.76;53.21
48244;BME280;34053;51.088;6.572;2022-09-20T15:02:27;101742.88;;;16.80;52.66
48244;BME280;34053;51.088;6.572;2022-09-20T15:04:57;101747.63;;;16.95;50.75
48244;BME280;34053;51.088;6.572;2022-09-20T15:07:31;101749.00;;;17.06;52.59
48244;BME280;34053;51.088;6.572;2022-09-20T15:10:02;101746.47;;;17.03;52.08
48244;BME280;34053;51.088;6.572;2022-09-20T15:12:37;101752.00;;;16.96;49.67
48244;BME280;34053;51.088;6.572;2022-09-20T15:15:11;101756.31;;;16.99;50.10
48244;BME280;34053;51.088;6.572;2022-09-20T15:17:45;101746.22;;;17.09;51.17
48244;BME280;34053;51.088;6.572;2022-09-20T15:20:20;101748.69;;;16.90;48.73
48244;BME280;34053;51.088;6.572;2022-09-20T15:22:51;101749.13;;;17.03;50.60
48244;BME280;34053;51.088;6.572;2022-09-20T15:25:21;101757.66;;;17.11;50.30
48244;BME280;34053;51.088;6.572;2022-09-20T15:27:52;101749.13;;;17.03;51.89
48244;BME280;34053;51.088;6.572;2022-09-20T15:30:22;101751.81;;;17.25;52.02
48244;BME280;34053;51.088;6.572;2022-09-20T15:32:53;101749.91;;;17.28;48.30
48244;BME280;34053;51.088;6.572;2022-09-20T15:35:24;101761.38;;;17.29;47.00
48244;BME280;34053;51.088;6.572;2022-09-20T15:37:56;101756.16;;;17.04;48.92
48244;BME280;34053;51.088;6.572;2022-09-20T15:40:26;101754.41;;;17.26;48.60
48244;BME280;34053;51.088;6.572;2022-09-20T15:43:01;101758.38;;;17.14;48.09
48244;BME280;34053;51.088;6.572;2022-09-20T15:45:52;101755.66;;;16.92;47.37
48244;BME280;34053;51.088;6.572;2022-09-20T15:48:24;101763.53;;;16.95;48.80
48244;BME280;34053;51.088;6.572;2022-09-20T15:51:06;101761.06;;;16.89;47.39
48244;BME280;34053;51.088;6.572;2022-09-20T15:53:48;101758.03;;;16.75;48.32
48244;BME280;34053;51.088;6.572;2022-09-20T15:56:41;101769.03;;;16.64;48.58
48244;BME280;34053;51.088;6.572;2022-09-20T15:59:14;101760.06;;;16.43;48.22
48244;BME280;34053;51.088;6.572;2022-09-20T16:01:46;101762.09;;;16.36;48.92
48244;BME280;34053;51.088;6.572;2022-09-20T16:04:27;101767.09;;;16.44;49.56
48244;BME280;34053;51.088;6.572;2022-09-20T16:07:11;101759.84;;;16.49;50.53
48244;BME280;34053;51.088;6.572;2022-09-20T16:09:51;101765.63;;;16.60;50.56
48244;BME280;34053;51.088;6.572;2022-09-20T16:12:48;101763.94;;;16.32;49.17
48244;BME280;34053;51.088;6.572;2022-09-20T16:15:34;101766.19;;;16.45;51.51
48244;BME280;34053;51.088;6.572;2022-09-20T16:18:14;101767.00;;;16.47;51.62
48244;BME280;34053;51.088;6.572;2022-09-20T16:21:12;101765.69;;;16.33;50.51
48244;BME280;34053;51.088;6.572;2022-09-20T16:24:15;101772.94;;;16.28;49.67
48244;BME280;34053;51.088;6.572;2022-09-20T16:26:56;101770.72;;;16.41;50.76
48244;BME280;34053;51.088;6.572;2022-09-20T16:29:32;101771.09;;;16.30;50.34
48244;BME280;34053;51.088;6.572;2022-09-20T16:32:47;101775.34;;;16.36;51.53
48244;BME280;34053;51.088;6.572;2022-09-20T16:35:21;101771.88;;;16.34;52.17
48244;BME280;34053;51.088;6.572;2022-09-20T16:37:51;101775.44;;;16.33;52.88
48244;BME280;34053;51.088;6.572;2022-09-20T16:40:22;101769.97;;;16.38;52.98
48244;BME280;34053;51.088;6.572;2022-09-20T16:42:56;101777.59;;;16.47;52.52
48244;BME280;34053;51.088;6.572;2022-09-20T16:45:39;101784.19;;;16.35;51.92
48244;BME280;34053;51.088;6.572;2022-09-20T16:48:18;101776.28;;;16.33;53.37
48244;BME280;34053;51.088;6.572;2022-09-20T16:50:53;101780.97;;;16.25;52.49
48244;BME280;34053;51.088;6.572;2022-09-20T16:53:31;101777.47;;;16.25;53.41
48244;BME280;34053;51.088;6.572;2022-09-20T16:56:40;101778.22;;;16.28;53.41
48244;BME280;34053;51.088;6.572;2022-09-20T16:59:16;101780.59;;;16.11;52.96
48244;BME280;34053;51.088;6.572;2022-09-20T17:01:50;101784.25;;;16.07;51.57
48244;BME280;34053;51.088;6.572;2022-09-20T17:04:47;101785.03;;;16.10;52.74
48244;BME280;34053;51.088;6.572;2022-09-20T17:07:30;101791.63;;;15.97;53.21
48244;BME280;34053;51.088;6.572;2022-09-20T17:10:13;101794.94;;;16.03;52.41
48244;BME280;34053;51.088;6.572;2022-09-20T17:12:54;101798.19;;;15.85;52.88
48244;BME280;34053;51.088;6.572;2022-09-20T17:15:28;101797.19;;;15.89;53.88
48244;BME280;34053;51.088;6.572;2022-09-20T17:17:59;101797.50;;;15.78;53.18
48244;BME280;34053;51.088;6.572;2022-09-20T17:20:56;101811.31;;;15.88;53.09
48244;BME280;34053;51.088;6.572;2022-09-20T17:23:48;101805.97;;;15.89;53.78
48244;BME280;34053;51.088;6.572;2022-09-20T17:26:51;101811.47;;;15.83;54.27
48244;BME280;34053;51.088;6.572;2022-09-20T17:29:27;101808.22;;;15.73;54.52
48244;BME280;34053;51.088;6.572;2022-09-20T17:32:21;101815.13;;;15.78;54.28
48244;BME280;34053;51.088;6.572;2022-09-20T17:34:51;101820.91;;;15.62;54.67
48244;BME280;34053;51.088;6.572;2022-09-20T17:37:22;101816.47;;;15.63;54.77
48244;BME280;34053;51.088;6.572;2022-09-20T17:39:53;101821.88;;;15.60;55.25
48244;BME280;34053;51.088;6.572;2022-09-20T17:42:28;101822.88;;;15.55;55.40
48244;BME280;34053;51.088;6.572;2022-09-20T17:45:18;101824.66;;;15.55;55.18
48244;BME280;34053;51.088;6.572;2022-09-20T17:47:50;101828.34;;;15.49;55.67
48244;BME280;34053;51.088;6.572;2022-09-20T17:50:59;101830.22;;;15.46;55.79
48244;BME280;34053;51.088;6.572;2022-09-20T17:54:00;101826.63;;;15.48;55.93
48244;BME280;34053;51.088;6.572;2022-09-20T17:56:46;101829.38;;;15.45;55.99
48244;BME280;34053;51.088;6.572;2022-09-20T17:59:18;101830.34;;;15.41;56.47
48244;BME280;34053;51.088;6.572;2022-09-20T18:01:53;101832.16;;;15.40;56.08
48244;BME280;34053;51.088;6.572;2022-09-20T18:04:23;101835.69;;;15.39;56.42
48244;BME280;34053;51.088;6.572;2022-09-20T18:06:54;101841.34;;;15.27;56.82
48244;BME280;34053;51.088;6.572;2022-09-20T18:09:25;101836.78;;;15.32;56.47
48244;BME280;34053;51.088;6.572;2022-09-20T18:11:57;101841.59;;;15.18;56.96
48244;BME280;34053;51.088;6.572;2022-09-20T18:14:27;101846.75;;;15.22;56.69
48244;BME280;34053;51.088;6.572;2022-09-20T18:17:08;101850.28;;;15.23;56.88
48244;BME280;34053;51.088;6.572;2022-09-20T18:20:01;101858.34;;;15.17;57.13
48244;BME280;34053;51.088;6.572;2022-09-20T18:22:49;101857.50;;;15.16;57.14
48244;BME280;34053;51.088;6.572;2022-09-20T18:25:24;101857.63;;;15.11;57.38
48244;BME280;34053;51.088;6.572;2022-09-20T18:27:57;101857.72;;;15.08;57.23
48244;BME280;34053;51.088;6.572;2022-09-20T18:31:08;101861.13;;;15.14;57.26
48244;BME280;34053;51.088;6.572;2022-09-20T18:33:42;101868.38;;;15.05;57.33
48244;BME280;34053;51.088;6.572;2022-09-20T18:36:15;101870.13;;;15.06;57.60
48244;BME280;34053;51.088;6.572;2022-09-20T18:38:47;101873.84;;;14.99;57.71
48244;BME280;34053;51.088;6.572;2022-09-20T18:41:25;101870.19;;;15.03;57.74
48244;BME280;34053;51.088;6.572;2022-09-20T18:43:57;101871.94;;;15.04;57.73
48244;BME280;34053;51.088;6.572;2022-09-20T18:46:29;101880.03;;;14.98;58.27
48244;BME280;34053;51.088;6.572;2022-09-20T18:49:10;101873.91;;;14.96;58.20
48244;BME280;34053;51.088;6.572;2022-09-20T18:51:50;101874.91;;;14.92;58.50
48244;BME280;34053;51.088;6.572;2022-09-20T18:54:23;101873.13;;;14.92;58.42
48244;BME280;34053;51.088;6.572;2022-09-20T18:56:58;101881.19;;;14.88;58.68
48244;BME280;34053;51.088;6.572;2022-09-20T18:59:29;101879.44;;;14.87;58.83
48244;BME280;34053;51.088;6.572;2022-09-20T19:02:47;101890.09;;;14.84;58.83
48244;BME280;34053;51.088;6.572;2022-09-20T19:05:33;101884.13;;;14.75;59.07
48244;BME280;34053;51.088;6.572;2022-09-20T19:08:33;101888.50;;;14.76;59.21
48244;BME280;34053;51.088;6.572;2022-09-20T19:11:19;101888.69;;;14.70;59.19